Time;durP1;ratioP1;P1;durP2;ratioP2;P2;SDS_P1;SDS_P2;PMS_P1;PMS_P2;Temp;Humidity;BMP_temperature;BMP_pressure;BME280_temperature;BME280_humidity;BME280_pressure;Samples;Min_cycle;Max_cycle;Signal;HPM_P1;HPM_P2
2023/05/21 00:02:21;;;;;;;;;11.00;10.50;;;;;13.28;66.24;100026.44;5116862;28;8828;-58
2023/05/21 00:04:48;;;;;;;;;14.25;14.25;;;;;13.28;66.37;100026.44;5117781;28;8844;-59
2023/05/21 00:07:17;;;;;;;;;11.00;10.00;;;;;13.25;66.56;100016.84;5117737;28;9493;-59
2023/05/21 00:09:45;;;;;;;;;18.75;13.50;;;;;13.24;66.27;100016.97;5117579;28;8974;-58
2023/05/21 00:12:12;;;;;;;;;13.50;12.50;;;;;13.22;66.46;100018.97;5117725;28;8831;-59
2023/05/21 00:14:40;;;;;;;;;11.50;9.50;;;;;13.25;66.01;100010.66;5117545;28;8893;-60
2023/05/21 00:17:08;;;;;;;;;12.00;10.00;;;;;13.25;66.61;100010.66;5117530;28;8858;-58
2023/05/21 00:19:38;;;;;;;;;17.50;15.75;;;;;13.24;66.11;100004.47;5117309;28;8914;-58
2023/05/21 00:22:06;;;;;;;;;17.50;13.50;;;;;13.26;65.98;100005.16;5117132;28;8847;-57
2023/05/21 00:24:34;;;;;;;;;15.50;13.25;;;;;13.29;66.23;100002.22;5117416;28;8836;-57
2023/05/21 00:27:01;;;;;;;;;15.25;15.00;;;;;13.31;65.98;100002.06;5116896;28;8955;-58
2023/05/21 00:29:30;;;;;;;;;6.50;6.00;;;;;13.30;66.17;99998.53;5117404;28;8986;-58
2023/05/21 00:31:58;;;;;;;;;12.75;12.25;;;;;13.26;66.27;99991.81;5117297;28;8887;-58
2023/05/21 00:34:26;;;;;;;;;16.00;15.00;;;;;13.23;66.09;99991.22;5117101;28;8847;-58
2023/05/21 00:36:54;;;;;;;;;13.25;10.75;;;;;13.18;66.33;99988.09;5117432;28;9529;-58
2023/05/21 00:39:22;;;;;;;;;9.25;9.00;;;;;13.15;66.56;99988.41;5117004;28;8836;-59
2023/05/21 00:41:49;;;;;;;;;10.00;9.00;;;;;13.11;66.55;99984.28;5117087;28;8827;-58
2023/05/21 00:44:18;;;;;;;;;12.00;10.00;;;;;13.07;66.37;99974.88;5118545;28;8835;-58
2023/05/21 00:46:47;;;;;;;;;8.75;8.50;;;;;13.05;66.34;99979.50;5117473;28;8824;-58
2023/05/21 00:49:15;;;;;;;;;11.50;9.00;;;;;13.02;66.30;99977.94;5117679;28;8828;-58
2023/05/21 00:51:44;;;;;;;;;15.50;15.25;;;;;13.03;67.00;99981.44;5116989;28;8866;-59
2023/05/21 00:54:11;;;;;;;;;11.50;11.50;;;;;13.02;66.99;99977.94;5117238;28;8916;-57
2023/05/21 00:56:39;;;;;;;;;8.00;7.00;;;;;13.02;66.60;99974.41;5117226;28;8951;-58
2023/05/21 00:59:07;;;;;;;;;18.25;15.25;;;;;13.03;66.51;99968.09;5117119;28;8832;-58
2023/05/21 01:01:35;;;;;;;;;13.75;13.00;;;;;13.07;66.33;99972.19;5116800;28;8844;-59
2023/05/21 01:04:03;;;;;;;;;13.25;12.00;;;;;13.09;66.74;99972.91;5116908;28;8840;-58
2023/05/21 01:06:33;;;;;;;;;12.50;12.00;;;;;13.08;66.75;99966.69;5116534;28;8831;-58
2023/05/21 01:09:03;;;;;;;;;8.50;8.00;;;;;13.09;66.33;99967.53;5116937;28;8864;-58
2023/05/21 01:11:31;;;;;;;;;14.00;14.00;;;;;13.08;66.59;99965.84;5116759;28;8962;-58
2023/05/21 01:13:59;;;;;;;;;11.75;11.00;;;;;13.03;66.70;99960.06;5116498;28;8831;-58
2023/05/21 01:16:27;;;;;;;;;12.25;11.25;;;;;12.99;66.90;99951.47;5116649;28;8954;-58
2023/05/21 01:18:56;;;;;;;;;12.50;12.00;;;;;12.95;66.85;99965.25;5116951;28;8824;-57
2023/05/21 01:21:24;;;;;;;;;13.00;12.75;;;;;12.90;66.96;99960.28;5116509;28;8828;-57
2023/05/21 01:23:52;;;;;;;;;13.00;12.50;;;;;12.88;66.86;99959.59;5116149;28;8836;-58
2023/05/21 01:26:20;;;;;;;;;6.00;6.00;;;;;12.85;66.87;99961.69;5116402;28;8819;-59
2023/05/21 01:28:47;;;;;;;;;12.50;11.00;;;;;12.83;66.61;99960.97;5116423;28;8962;-58
2023/05/21 01:31:17;;;;;;;;;12.00;10.00;;;;;12.80;66.73;99964.75;5116522;28;8874;-58
2023/05/21 01:33:45;;;;;;;;;11.00;10.00;;;;;12.76;67.25;99958.00;5116720;28;8854;-58
2023/05/21 01:36:14;;;;;;;;;12.50;11.50;;;;;12.72;67.67;99961.94;5116640;28;8820;-57
2023/05/21 01:38:42;;;;;;;;;12.50;12.50;;;;;12.68;67.70;99955.16;5116408;28;8827;-58
2023/05/21 01:41:10;;;;;;;;;15.25;14.00;;;;;12.66;67.25;99958.94;5116616;28;8836;-58
2023/05/21 01:43:37;;;;;;;;;11.00;10.00;;;;;12.62;67.11;99953.00;5117382;28;8827;-57
2023/05/21 01:46:05;;;;;;;;;14.50;13.50;;;;;12.61;67.74;99962.00;5116767;28;8954;-58
2023/05/21 01:48:33;;;;;;;;;12.50;12.00;;;;;12.59;67.87;99955.09;5116336;28;8819;-58
2023/05/21 01:51:01;;;;;;;;;12.00;10.50;;;;;12.56;67.29;99953.56;5116118;28;8877;-57
2023/05/21 01:53:29;;;;;;;;;12.50;12.50;;;;;12.53;67.51;99947.66;5116353;28;8832;-58
2023/05/21 01:55:58;;;;;;;;;11.75;11.50;;;;;12.52;67.83;99951.28;5116518;28;8823;-58
2023/05/21 01:58:26;;;;;;;;;13.00;11.00;;;;;12.49;67.38;99946.22;5116523;28;8819;-58
2023/05/21 02:00:54;;;;;;;;;14.00;12.25;;;;;12.47;67.34;99948.19;5116696;28;9573;-58
2023/05/21 02:03:21;;;;;;;;;12.50;10.50;;;;;12.43;67.87;99939.59;5116234;28;8847;-57
2023/05/21 02:05:50;;;;;;;;;10.00;10.00;;;;;12.41;67.58;99938.88;5116451;28;8950;-57
2023/05/21 02:08:18;;;;;;;;;12.50;12.50;;;;;12.38;67.55;99930.28;5116510;28;8819;-58
2023/05/21 02:10:46;;;;;;;;;14.00;13.00;;;;;12.36;67.89;99934.91;5115588;28;8828;-58
2023/05/21 02:13:14;;;;;;;;;11.50;9.75;;;;;12.33;67.79;99945.84;5115945;28;8970;-58
2023/05/21 02:15:43;;;;;;;;;17.75;14.00;;;;;12.30;67.69;99940.78;5116363;28;8836;-58
2023/05/21 02:18:11;;;;;;;;;14.50;12.75;;;;;12.27;68.00;99941.03;5116614;28;9533;-57
2023/05/21 02:20:39;;;;;;;;;6.25;5.00;;;;;12.24;67.66;99939.47;5115882;28;8832;-58
2023/05/21 02:23:07;;;;;;;;;16.50;15.00;;;;;12.20;68.27;99930.06;5115913;28;8840;-58
2023/05/21 02:25:34;;;;;;;;;10.50;10.50;;;;;12.18;67.63;99931.16;5117543;28;8828;-57
2023/05/21 02:28:02;;;;;;;;;9.50;7.00;;;;;12.16;68.04;99933.13;5119941;28;8839;-58
2023/05/21 02:30:30;;;;;;;;;15.50;15.00;;;;;12.13;68.21;99936.03;5119849;28;8958;-58
2023/05/21 02:32:59;;;;;;;;;10.50;10.00;;;;;12.09;67.97;99931.97;5119616;28;8839;-58
2023/05/21 02:35:27;;;;;;;;;9.75;8.00;;;;;12.08;68.36;99938.28;5120154;28;8860;-57
2023/05/21 02:37:57;;;;;;;;;14.00;14.00;;;;;12.06;68.13;99934.88;5119829;28;8950;-57
2023/05/21 02:40:25;;;;;;;;;15.50;15.00;;;;;12.04;68.08;99934.16;5119338;28;8857;-57
2023/05/21 02:42:53;;;;;;;;;13.00;13.00;;;;;12.01;68.38;99929.09;5120083;28;9501;-60
2023/05/21 02:45:23;;;;;;;;;13.00;12.00;;;;;11.98;68.46;99930.22;5119721;28;8850;-60
2023/05/21 02:47:50;;;;;;;;;15.25;14.50;;;;;11.97;68.70;99935.66;5119527;28;8935;-59
2023/05/21 02:50:18;;;;;;;;;13.00;10.00;;;;;11.94;68.35;99935.94;5119435;28;8848;-60
2023/05/21 02:52:46;;;;;;;;;11.00;10.25;;;;;11.93;68.40;99923.59;5119425;28;8938;-60
2023/05/21 02:55:14;;;;;;;;;14.00;13.50;;;;;11.91;68.32;99925.50;5119578;28;8946;-58
2023/05/21 02:57:41;;;;;;;;;7.00;6.25;;;;;11.89;68.40;99924.81;5119301;28;8835;-58
2023/05/21 03:00:10;;;;;;;;;7.00;7.00;;;;;11.87;68.39;99925.91;5119575;28;8824;-60
2023/05/21 03:02:38;;;;;;;;;12.50;12.50;;;;;11.87;68.20;99928.56;5119429;28;8958;-62
2023/05/21 03:05:06;;;;;;;;;12.00;10.50;;;;;11.84;68.16;99932.34;5119171;28;8989;-63
2023/05/21 03:07:33;;;;;;;;;12.25;12.00;;;;;11.84;68.32;99926.19;5119615;28;9600;-62
2023/05/21 03:10:01;;;;;;;;;12.50;12.00;;;;;11.83;68.44;99922.66;5119216;28;8824;-63
2023/05/21 03:12:29;;;;;;;;;9.75;9.50;;;;;11.82;68.44;99928.13;5119199;28;8812;-61
2023/05/21 03:14:58;;;;;;;;;11.00;10.50;;;;;11.81;68.71;99923.75;5119427;28;8942;-62
2023/05/21 03:17:26;;;;;;;;;12.50;11.00;;;;;11.81;68.42;99911.28;5119364;28;8924;-59
2023/05/21 03:19:54;;;;;;;;;11.50;11.50;;;;;11.81;68.37;99913.06;5119016;28;8835;-62
2023/05/21 03:22:23;;;;;;;;;13.00;11.00;;;;;11.79;68.53;99915.91;5119273;28;8816;-61
2023/05/21 03:24:52;;;;;;;;;15.75;14.00;;;;;11.80;68.21;99920.25;5118962;28;8860;-62
2023/05/21 03:27:19;;;;;;;;;10.50;9.50;;;;;11.80;68.39;99914.91;5119049;28;8851;-63
2023/05/21 03:29:47;;;;;;;;;14.50;11.75;;;;;11.78;68.14;99916.03;5119171;28;8835;-63
2023/05/21 03:32:15;;;;;;;;;13.00;12.00;;;;;11.75;68.51;99911.78;5118957;28;8856;-62
2023/05/21 03:34:43;;;;;;;;;12.75;12.75;;;;;11.73;68.75;99913.75;5118739;28;8874;-61
2023/05/21 03:37:11;;;;;;;;;12.25;12.25;;;;;11.71;68.82;99909.50;5118474;28;8957;-63
2023/05/21 03:39:38;;;;;;;;;13.00;13.00;;;;;11.70;68.59;99918.50;5118452;28;8967;-62
2023/05/21 03:42:06;;;;;;;;;15.00;12.75;;;;;11.70;68.29;99919.34;5118880;28;8942;-62
2023/05/21 03:44:34;;;;;;;;;14.00;12.75;;;;;11.70;68.37;99913.16;5119113;28;8862;-61
2023/05/21 03:47:02;;;;;;;;;12.00;12.00;;;;;11.70;68.54;99919.34;5118457;28;8843;-63
2023/05/21 03:49:30;;;;;;;;;15.50;13.50;;;;;11.71;68.49;99921.03;5118614;28;8828;-62
2023/05/21 03:51:57;;;;;;;;;11.00;10.00;;;;;11.72;68.64;99917.41;5118287;28;9016;-61
2023/05/21 03:54:25;;;;;;;;;11.00;10.00;;;;;11.73;68.39;99908.41;5118126;28;8840;-62
2023/05/21 03:56:52;;;;;;;;;17.00;14.75;;;;;11.76;68.68;99918.81;5118384;28;8859;-61
2023/05/21 03:59:21;;;;;;;;;15.00;12.75;;;;;11.76;68.11;99918.81;5117980;28;8909;-62
2023/05/21 04:01:49;;;;;;;;;13.50;12.00;;;;;11.78;68.41;99919.56;5117927;28;8823;-62
2023/05/21 04:04:17;;;;;;;;;15.75;12.50;;;;;11.79;68.32;99917.72;5118052;28;8856;-62
2023/05/21 04:06:45;;;;;;;;;10.75;10.00;;;;;11.77;68.58;99920.53;5118214;28;8832;-60
2023/05/21 04:09:12;;;;;;;;;13.00;12.75;;;;;11.75;68.57;99916.28;5117970;28;8852;-60
2023/05/21 04:11:40;;;;;;;;;14.50;13.50;;;;;11.73;68.43;99916.41;5118048;28;8977;-62
2023/05/21 04:14:08;;;;;;;;;12.25;11.00;;;;;11.71;68.72;99921.03;5118199;28;8832;-63
2023/05/21 04:16:37;;;;;;;;;14.00;12.75;;;;;11.70;68.96;99918.50;5118272;28;8857;-61
2023/05/21 04:19:05;;;;;;;;;10.50;10.50;;;;;11.68;68.66;99926.63;5118073;28;8828;-61
2023/05/21 04:21:32;;;;;;;;;11.00;10.00;;;;;11.68;68.58;99920.44;5118132;28;8835;-62
2023/05/21 04:24:00;;;;;;;;;15.00;11.00;;;;;11.68;68.28;99926.63;5117962;28;8942;-60
2023/05/21 04:26:32;;;;;;;;;13.75;12.75;;;;;11.68;68.47;99921.28;5117546;28;8842;-62
2023/05/21 04:29:01;;;;;;;;;13.25;11.00;;;;;11.70;68.17;99930.03;5118249;28;8816;-60
2023/05/21 04:31:29;;;;;;;;;7.50;7.50;;;;;11.75;68.18;99926.97;5118068;28;8946;-59
2023/05/21 04:33:58;;;;;;;;;14.50;12.50;;;;;11.78;68.29;99927.56;5117543;28;8844;-60
2023/05/21 04:36:27;;;;;;;;;8.00;7.75;;;;;11.83;68.05;99929.81;5118096;28;8942;-60
2023/05/21 04:38:55;;;;;;;;;10.00;9.50;;;;;11.88;68.06;99935.59;5118017;28;8843;-59
2023/05/21 04:41:23;;;;;;;;;9.00;7.50;;;;;11.94;67.49;99935.94;5117795;28;8980;-58
2023/05/21 04:43:53;;;;;;;;;15.50;14.50;;;;;12.01;67.77;99934.44;5118613;28;8829;-58
2023/05/21 04:46:23;;;;;;;;;16.00;12.50;;;;;12.08;67.72;99935.63;5117580;28;8827;-58
2023/05/21 04:48:52;;;;;;;;;15.25;13.50;;;;;12.16;67.53;99941.13;5117279;28;9543;-59
2023/05/21 04:51:20;;;;;;;;;12.25;11.75;;;;;12.21;67.18;99930.88;5117778;28;8962;-59
2023/05/21 04:53:48;;;;;;;;;13.00;13.00;;;;;12.28;67.20;99927.56;5117270;28;8823;-58
2023/05/21 04:56:16;;;;;;;;;12.00;12.00;;;;;12.34;67.05;99927.03;5117396;28;8832;-60
2023/05/21 04:58:44;;;;;;;;;16.00;14.00;;;;;12.41;67.19;99919.31;5117317;28;9545;-60
2023/05/21 05:01:11;;;;;;;;;13.50;12.50;;;;;12.48;66.72;99917.81;5116934;28;8956;-60
2023/05/21 05:03:39;;;;;;;;;9.25;9.00;;;;;12.55;66.83;99919.78;5116913;28;8816;-59
2023/05/21 05:06:07;;;;;;;;;6.50;6.00;;;;;12.59;66.90;99920.38;5117008;28;8921;-60
2023/05/21 05:08:35;;;;;;;;;9.25;7.00;;;;;12.59;66.74;99920.38;5116950;28;8946;-60
2023/05/21 05:11:03;;;;;;;;;11.00;10.00;;;;;12.62;67.12;99917.44;5116740;28;8812;-60
2023/05/21 05:13:32;;;;;;;;;10.25;9.25;;;;;12.65;66.87;99914.50;5116847;28;8840;-60
2023/05/21 05:16:00;;;;;;;;;11.50;9.25;;;;;12.71;66.33;99919.31;5117037;28;8939;-59
2023/05/21 05:18:28;;;;;;;;;15.50;13.50;;;;;12.77;66.72;99913.41;5116594;28;8909;-57
2023/05/21 05:20:55;;;;;;;;;14.00;13.00;;;;;12.82;66.78;99921.84;5116572;28;8978;-59
2023/05/21 05:23:23;;;;;;;;;12.75;12.00;;;;;12.86;66.41;99913.44;5116575;28;8855;-59
2023/05/21 05:25:51;;;;;;;;;11.00;9.00;;;;;12.93;66.48;99903.03;5116640;28;8948;-59
2023/05/21 05:28:19;;;;;;;;;13.50;12.75;;;;;12.99;66.29;99906.03;5116581;28;9498;-59
2023/05/21 05:30:47;;;;;;;;;16.00;13.00;;;;;13.06;66.51;99909.00;5116613;28;8850;-60
2023/05/21 05:33:14;;;;;;;;;7.00;6.75;;;;;13.15;65.91;99909.00;5116008;28;8941;-60
2023/05/21 05:35:42;;;;;;;;;15.00;14.50;;;;;13.24;66.40;99907.34;5116032;28;9592;-60
2023/05/21 05:38:10;;;;;;;;;14.75;13.50;;;;;13.31;65.55;99908.47;5115753;28;8812;-59
2023/05/21 05:40:38;;;;;;;;;15.75;14.00;;;;;13.36;65.61;99907.06;5115285;28;8836;-58
2023/05/21 05:43:05;;;;;;;;;11.00;10.50;;;;;13.42;65.33;99911.00;5116460;28;8854;-58
2023/05/21 05:45:33;;;;;;;;;13.50;11.50;;;;;13.48;65.81;99913.13;5115207;28;8831;-58
2023/05/21 05:48:01;;;;;;;;;12.50;11.75;;;;;13.53;65.14;99911.69;5115647;28;8836;-58
2023/05/21 05:50:29;;;;;;;;;13.50;12.75;;;;;13.60;65.54;99899.44;5115760;28;8823;-57
2023/05/21 05:52:56;;;;;;;;;14.75;14.50;;;;;13.66;65.50;99903.41;5115662;28;8886;-57
2023/05/21 05:55:25;;;;;;;;;14.50;12.75;;;;;13.70;65.63;99912.81;5116367;28;8843;-57
2023/05/21 05:57:53;;;;;;;;;13.00;12.00;;;;;13.74;64.62;99908.88;5115717;28;8836;-57
2023/05/21 06:00:21;;;;;;;;;15.75;12.75;;;;;13.80;65.32;99910.97;5117372;28;8962;-58
2023/05/21 06:02:49;;;;;;;;;19.25;16.50;;;;;13.86;64.87;99899.69;5120232;28;8824;-58
2023/05/21 06:05:17;;;;;;;;;14.00;13.00;;;;;13.92;64.68;99905.34;5120421;28;9514;-58
2023/05/21 06:07:44;;;;;;;;;16.75;15.00;;;;;13.99;64.49;99903.78;5120099;28;8867;-58
2023/05/21 06:10:12;;;;;;;;;12.25;12.00;;;;;14.07;64.62;99909.25;5120125;28;8824;-57
2023/05/21 06:12:40;;;;;;;;;18.25;17.75;;;;;14.15;64.32;99897.78;5120295;28;8823;-58
2023/05/21 06:15:08;;;;;;;;;14.00;12.25;;;;;14.23;64.35;99903.28;5120062;28;8828;-59
2023/05/21 06:17:36;;;;;;;;;16.00;13.00;;;;;14.28;64.52;99901.03;5120009;28;8858;-57
2023/05/21 06:20:04;;;;;;;;;14.00;12.25;;;;;14.33;64.59;99907.63;5120111;28;9498;-60
2023/05/21 06:22:31;;;;;;;;;15.75;15.00;;;;;14.39;64.30;99904.38;5119825;28;8965;-58
2023/05/21 06:24:59;;;;;;;;;17.00;15.00;;;;;14.46;64.00;99901.94;5119803;28;8830;-57
2023/05/21 06:27:27;;;;;;;;;13.00;11.00;;;;;14.54;63.94;99902.03;5119979;28;8824;-58
2023/05/21 06:29:56;;;;;;;;;14.00;12.50;;;;;14.61;64.16;99903.13;5120195;28;8856;-58
2023/05/21 06:32:23;;;;;;;;;15.75;15.50;;;;;14.64;63.66;99901.00;5120037;28;8969;-58
2023/05/21 06:34:51;;;;;;;;;17.00;15.50;;;;;14.70;63.80;99902.25;5119897;28;8855;-58
2023/05/21 06:37:19;;;;;;;;;19.25;17.00;;;;;14.75;64.03;99905.34;5119514;28;8832;-58
2023/05/21 06:39:48;;;;;;;;;20.00;19.00;;;;;14.78;63.31;99899.66;5119708;28;8846;-58
2023/05/21 06:42:16;;;;;;;;;15.25;14.75;;;;;14.83;63.58;99898.25;5119271;28;8824;-57
2023/05/21 06:44:44;;;;;;;;;17.00;15.50;;;;;14.88;63.42;99893.25;5120285;28;8926;-57
2023/05/21 06:47:12;;;;;;;;;16.00;16.00;;;;;14.94;63.29;99899.88;5119841;28;8828;-57
2023/05/21 06:49:39;;;;;;;;;18.00;15.75;;;;;15.00;63.53;99894.75;5119481;28;8929;-58
2023/05/21 06:52:07;;;;;;;;;18.50;18.50;;;;;15.08;63.75;99891.28;5119061;28;8832;-58
2023/05/21 06:54:36;;;;;;;;;14.75;14.50;;;;;15.16;63.27;99892.22;5118232;28;8820;-58
2023/05/21 06:57:03;;;;;;;;;18.50;16.50;;;;;15.25;62.89;99893.16;5117697;28;8828;-57
2023/05/21 06:59:31;;;;;;;;;20.00;18.75;;;;;15.35;63.18;99886.75;5117967;28;8840;-58
2023/05/21 07:01:59;;;;;;;;;15.50;14.00;;;;;15.45;63.10;99881.28;5118308;28;8866;-57
2023/05/21 07:04:30;;;;;;;;;21.25;20.00;;;;;15.51;62.97;99872.63;5118485;28;8982;-57
2023/05/21 07:06:58;;;;;;;;;20.50;17.00;;;;;15.54;63.14;99873.16;5118020;28;8836;-58
2023/05/21 07:09:26;;;;;;;;;20.50;18.75;;;;;15.55;63.51;99868.66;5118695;28;8858;-57
2023/05/21 07:11:54;;;;;;;;;18.50;17.50;;;;;15.59;63.27;99875.38;5118400;28;8819;-58
2023/05/21 07:14:22;;;;;;;;;18.00;17.25;;;;;15.64;62.95;99876.59;5119292;28;9672;-59
2023/05/21 07:16:49;;;;;;;;;16.25;15.50;;;;;15.67;63.06;99868.25;5119215;28;8843;-58
2023/05/21 07:19:17;;;;;;;;;19.00;16.75;;;;;15.71;62.87;99871.47;5118861;28;8819;-58
2023/05/21 07:21:45;;;;;;;;;20.00;18.00;;;;;15.77;63.24;99868.16;5118692;28;8847;-58
2023/05/21 07:24:13;;;;;;;;;15.00;15.00;;;;;15.85;63.12;99873.59;5117950;28;8966;-58
2023/05/21 07:26:41;;;;;;;;;18.75;18.50;;;;;15.91;63.09;99875.66;5116731;28;8835;-58
2023/05/21 07:29:09;;;;;;;;;20.75;20.00;;;;;15.96;62.87;99878.69;5116620;28;8854;-58
2023/05/21 07:31:37;;;;;;;;;21.00;19.25;;;;;16.02;62.96;99880.75;5116970;28;9490;-58
2023/05/21 07:34:05;;;;;;;;;17.25;15.50;;;;;16.07;63.18;99873.06;5116435;28;8859;-58
2023/05/21 07:36:33;;;;;;;;;21.25;20.00;;;;;16.12;63.43;99878.78;5116896;28;8840;-58
2023/05/21 07:39:01;;;;;;;;;20.75;20.25;;;;;16.17;62.77;99871.09;5117141;28;8958;-58
2023/05/21 07:41:29;;;;;;;;;24.75;22.00;;;;;16.19;63.53;99886.91;5117681;28;8925;-58
2023/05/21 07:43:57;;;;;;;;;21.75;19.00;;;;;16.23;63.24;99882.91;5118561;28;8836;-60
2023/05/21 07:46:25;;;;;;;;;12.50;11.50;;;;;16.31;63.05;99882.94;5117414;28;8936;-58
2023/05/21 07:48:53;;;;;;;;;22.00;18.75;;;;;16.38;63.55;99880.47;5118043;28;8828;-60
2023/05/21 07:51:20;;;;;;;;;19.50;17.50;;;;;16.40;63.30;99884.69;5117880;28;8970;-61
2023/05/21 07:53:48;;;;;;;;;17.25;17.00;;;;;16.41;62.65;99891.75;5117889;28;8843;-58
2023/05/21 07:56:16;;;;;;;;;18.75;16.50;;;;;16.48;63.10;99891.97;5117733;28;8852;-60
2023/05/21 07:58:44;;;;;;;;;19.50;18.00;;;;;16.56;62.78;99894.72;5117833;28;8942;-60
2023/05/21 08:01:12;;;;;;;;;20.50;20.50;;;;;16.67;62.94;99897.09;5117569;28;8823;-58
2023/05/21 08:03:40;;;;;;;;;25.50;22.25;;;;;16.77;62.62;99893.28;5117214;28;8827;-59
2023/05/21 08:06:08;;;;;;;;;22.00;20.00;;;;;16.91;62.34;99891.81;5117534;28;8831;-60
2023/05/21 08:08:36;;;;;;;;;24.75;22.75;;;;;17.07;62.24;99889.16;5117743;28;8852;-60
2023/05/21 08:11:04;;;;;;;;;24.25;22.50;;;;;17.24;62.48;99890.91;5117260;28;9599;-58
2023/05/21 08:13:31;;;;;;;;;19.25;17.25;;;;;17.38;62.29;99890.28;5117349;28;8828;-60
2023/05/21 08:15:59;;;;;;;;;21.00;20.50;;;;;17.52;61.40;99892.28;5117433;28;8828;-60
2023/05/21 08:18:27;;;;;;;;;15.75;13.75;;;;;17.66;61.47;99889.78;5117318;28;8840;-60
2023/05/21 08:20:55;;;;;;;;;24.00;22.00;;;;;17.78;61.24;99887.59;5116913;28;8917;-58
2023/05/21 08:23:23;;;;;;;;;26.00;22.00;;;;;17.91;60.98;99886.06;5115486;28;8831;-58
2023/05/21 08:25:52;;;;;;;;;30.25;27.50;;;;;18.02;60.76;99883.03;5116694;28;9563;-58
2023/05/21 08:28:19;;;;;;;;;27.50;24.50;;;;;18.15;61.00;99886.03;5115718;28;8921;-58
2023/05/21 08:30:48;;;;;;;;;24.00;23.25;;;;;18.33;60.49;99881.31;5114973;28;8966;-59
2023/05/21 08:33:17;;;;;;;;;28.00;22.25;;;;;18.41;60.07;99889.41;5115324;28;8937;-59
2023/05/21 08:35:47;;;;;;;;;24.25;23.00;;;;;18.54;60.03;99884.31;5116009;28;8945;-58
2023/05/21 08:38:15;;;;;;;;;24.25;22.00;;;;;18.66;59.88;99885.59;5116230;28;8839;-58
2023/05/21 08:40:43;;;;;;;;;27.75;26.00;;;;;18.78;59.88;99884.19;5116517;28;8852;-58
2023/05/21 08:43:13;;;;;;;;;25.00;23.00;;;;;18.99;59.63;99879.03;5116914;28;8843;-58
2023/05/21 08:45:41;;;;;;;;;24.40;23.00;;;;;19.28;59.00;99878.38;5117674;28;8824;-58
2023/05/21 08:48:10;;;;;;;;;19.00;19.00;;;;;19.45;58.59;99874.56;5116594;28;8973;-58
2023/05/21 08:50:37;;;;;;;;;22.20;21.40;;;;;19.69;58.74;99877.06;5116492;28;8828;-58
2023/05/21 08:53:06;;;;;;;;;24.80;24.00;;;;;19.96;57.78;99879.19;5116493;28;8917;-58
2023/05/21 08:55:54;;;;;;;;;27.60;25.20;;;;;20.18;57.64;99876.47;5116725;28;8816;-59
2023/05/21 08:58:22;;;;;;;;;18.20;16.60;;;;;20.31;57.31;99884.78;5116210;28;8839;-58
2023/05/21 09:00:50;;;;;;;;;27.00;24.40;;;;;20.40;57.28;99877.44;5116042;28;8847;-59
2023/05/21 09:03:21;;;;;;;;;24.00;23.40;;;;;20.45;57.21;99870.44;5115950;28;8954;-58
2023/05/21 09:05:49;;;;;;;;;25.20;23.20;;;;;20.53;57.32;99872.19;5116584;28;8986;-59
2023/05/21 09:08:17;;;;;;;;;28.40;26.20;;;;;20.58;57.15;99870.63;5115553;28;8835;-58
2023/05/21 09:10:45;;;;;;;;;21.40;20.40;;;;;20.65;57.54;99865.28;5116370;28;8832;-59
2023/05/21 09:13:13;;;;;;;;;27.40;26.20;;;;;20.68;56.99;99873.88;5115858;28;8843;-59
2023/05/21 09:15:41;;;;;;;;;31.00;27.00;;;;;20.66;57.64;99865.09;5116714;28;9857;-58
2023/05/21 09:18:09;;;;;;;;;22.40;20.40;;;;;20.63;57.61;99862.75;5116120;28;8840;-59
2023/05/21 09:20:37;;;;;;;;;28.20;27.20;;;;;20.57;57.86;99863.53;5116513;28;8875;-58
2023/05/21 09:23:06;;;;;;;;;21.00;19.00;;;;;20.49;57.73;99860.06;5115935;28;9485;-59
2023/05/21 09:25:34;;;;;;;;;24.60;23.60;;;;;20.47;57.93;99868.38;5115954;28;9497;-59
2023/05/21 09:28:02;;;;;;;;;28.40;27.20;;;;;20.40;58.14;99862.03;5115860;28;8954;-58
2023/05/21 09:30:30;;;;;;;;;28.40;24.00;;;;;20.32;58.30;99864.81;5115862;28;8875;-59
2023/05/21 09:33:02;;;;;;;;;20.60;20.20;;;;;20.23;58.43;99859.66;5115332;28;8835;-58
2023/05/21 09:35:30;;;;;;;;;25.20;22.60;;;;;20.12;59.27;99863.69;5114845;28;8840;-58
2023/05/21 09:37:58;;;;;;;;;26.80;23.60;;;;;20.03;59.09;99859.34;5114862;28;8937;-59
2023/05/21 09:40:26;;;;;;;;;28.40;26.40;;;;;19.97;59.72;99856.53;5115290;28;8820;-58
2023/05/21 09:42:54;;;;;;;;;25.40;24.20;;;;;19.96;59.58;99863.78;5115266;28;8874;-58
2023/05/21 09:45:22;;;;;;;;;32.80;30.80;;;;;20.04;59.39;99865.59;5115234;28;8866;-58
2023/05/21 09:47:50;;;;;;;;;24.20;23.00;;;;;20.13;59.17;99859.97;5114820;28;8855;-60
2023/05/21 09:50:18;;;;;;;;;20.80;18.00;;;;;20.21;58.92;99854.47;5115077;28;8864;-59
2023/05/21 09:52:46;;;;;;;;;31.20;28.80;;;;;20.27;58.78;99853.72;5114978;28;8836;-59
2023/05/21 09:55:14;;;;;;;;;31.40;27.80;;;;;20.36;58.67;99847.19;5115305;28;8859;-61
2023/05/21 09:57:42;;;;;;;;;27.80;24.40;;;;;20.41;58.88;99854.75;5115575;28;8966;-59
2023/05/21 10:00:11;;;;;;;;;27.60;26.60;;;;;20.42;58.77;99851.88;5115911;28;8831;-62
2023/05/21 10:02:39;;;;;;;;;24.80;23.20;;;;;20.43;58.69;99852.69;5115956;28;8835;-61
2023/05/21 10:05:07;;;;;;;;;21.00;18.80;;;;;20.44;58.99;99862.50;5115678;28;8880;-60
2023/05/21 10:07:35;;;;;;;;;22.00;20.60;;;;;20.44;59.21;99857.94;5115927;28;8867;-63
2023/05/21 10:10:03;;;;;;;;;27.60;24.60;;;;;20.44;58.79;99857.94;5115831;28;8835;-61
2023/05/21 10:12:31;;;;;;;;;23.20;22.40;;;;;20.44;59.40;99863.34;5114443;28;8839;-60
2023/05/21 10:14:59;;;;;;;;;35.60;31.40;;;;;20.43;59.17;99856.25;5114653;28;8859;-59
2023/05/21 10:17:27;;;;;;;;;27.40;25.60;;;;;20.43;58.99;99850.84;5114477;28;8812;-60
2023/05/21 10:19:55;;;;;;;;;27.00;23.80;;;;;20.45;59.41;99845.22;5114960;28;9528;-60
2023/05/21 10:22:23;;;;;;;;;29.60;27.60;;;;;20.50;59.37;99840.94;5114471;28;8852;-59
2023/05/21 10:24:51;;;;;;;;;28.00;24.40;;;;;20.61;59.11;99840.47;5114007;28;8869;-59
2023/05/21 10:27:19;;;;;;;;;30.80;30.20;;;;;20.77;58.75;99832.97;5113923;28;8828;-60
2023/05/21 10:29:47;;;;;;;;;26.00;24.20;;;;;20.90;58.57;99833.16;5114937;28;8972;-60
2023/05/21 10:32:15;;;;;;;;;22.60;22.20;;;;;21.09;58.26;99831.69;5114938;28;8827;-63
2023/05/21 10:34:44;;;;;;;;;29.40;27.80;;;;;21.29;57.57;99828.19;5114602;28;8863;-58
2023/05/21 10:37:12;;;;;;;;;30.80;28.00;;;;;21.52;57.40;99827.97;5115297;28;8847;-59
2023/05/21 10:39:40;;;;;;;;;31.60;30.00;;;;;21.70;57.32;99825.69;5115174;28;8860;-59
2023/05/21 10:42:08;;;;;;;;;32.20;29.40;;;;;21.70;56.77;99825.69;5114386;28;8855;-59
2023/05/21 10:44:35;;;;;;;;;28.00;27.60;;;;;21.64;57.18;99826.44;5115710;28;8823;-60
2023/05/21 10:47:03;;;;;;;;;26.20;24.40;;;;;21.59;57.38;99818.03;5117766;28;8978;-59
2023/05/21 10:49:31;;;;;;;;;27.60;24.80;;;;;21.62;57.24;99814.94;5118762;28;8909;-58
2023/05/21 10:52:00;;;;;;;;;30.60;26.40;;;;;21.71;57.45;99822.78;5118231;28;8836;-60
2023/05/21 10:54:28;;;;;;;;;27.20;25.40;;;;;21.81;57.19;99819.72;5118785;28;8852;-59
2023/05/21 10:56:56;;;;;;;;;30.80;29.20;;;;;21.96;56.78;99815.03;5118303;28;8836;-60
2023/05/21 10:59:24;;;;;;;;;24.80;23.00;;;;;22.09;56.93;99821.41;5118032;28;8839;-61
2023/05/21 11:01:52;;;;;;;;;26.40;26.00;;;;;22.13;56.71;99816.41;5118381;28;8851;-61
2023/05/21 11:04:20;;;;;;;;;30.00;29.00;;;;;22.16;56.16;99822.28;5117509;28;8859;-60
2023/05/21 11:06:48;;;;;;;;;28.40;25.60;;;;;22.21;56.54;99808.13;5117797;28;8935;-60
2023/05/21 11:09:16;;;;;;;;;22.00;20.20;;;;;22.32;56.36;99813.00;5117737;28;8831;-61
2023/05/21 11:11:44;;;;;;;;;27.60;26.60;;;;;22.42;56.46;99813.50;5117861;28;8933;-59
2023/05/21 11:14:13;;;;;;;;;34.80;30.40;;;;;22.48;55.69;99816.22;5118090;28;8966;-59
2023/05/21 11:16:41;;;;;;;;;26.40;25.40;;;;;22.60;55.65;99803.78;5118057;28;8843;-60
2023/05/21 11:19:09;;;;;;;;;28.00;27.40;;;;;22.76;55.40;99797.16;5118054;28;8870;-58
2023/05/21 11:21:37;;;;;;;;;30.80;28.20;;;;;22.91;55.28;99800.56;5117944;28;8862;-59
2023/05/21 11:24:10;;;;;;;;;29.20;28.80;;;;;23.10;55.41;99797.91;5117126;28;8897;-60
2023/05/21 11:26:39;;;;;;;;;25.00;23.20;;;;;23.77;53.71;99795.06;5117211;28;8823;-59
2023/05/21 11:29:06;;;;;;;;;25.20;22.00;;;;;24.79;52.01;99786.91;5116791;28;8832;-60
2023/05/21 11:31:37;;;;;;;;;28.80;26.60;;;;;25.27;51.25;99788.16;5116416;28;8901;-60